Time;durP1;ratioP1;P1;durP2;ratioP2;P2;SDS_P1;SDS_P2;PMS_P1;PMS_P2;Temp;Humidity;BMP_temperature;BMP_pressure;BME280_temperature;BME280_humidity;BME280_pressure;Samples;Min_cycle;Max_cycle;Signal;HPM_P1;HPM_P2
2021/09/07 00:00:45;;;;;;;10.43;8.98;;;20.50;68.40;;;;;;5023007;28;20195;-89
2021/09/07 00:03:11;;;;;;;9.88;9.07;;;20.50;69.00;;;;;;5022967;28;20853;-88
2021/09/07 00:05:37;;;;;;;9.32;8.45;;;20.60;68.70;;;;;;5023404;28;20210;-88
2021/09/07 00:08:03;;;;;;;9.05;8.30;;;20.60;68.10;;;;;;5023641;28;20197;-88
2021/09/07 00:10:29;;;;;;;9.30;8.43;;;20.60;68.00;;;;;;5027543;28;20191;-88
2021/09/07 00:12:55;;;;;;;10.00;9.00;;;20.50;68.20;;;;;;5009108;28;20225;-88
2021/09/07 00:15:21;;;;;;;9.45;8.55;;;20.40;68.60;;;;;;5024613;28;20206;-89
2021/09/07 00:17:48;;;;;;;9.43;8.43;;;20.30;69.50;;;;;;5027588;28;20226;-88
2021/09/07 00:20:14;;;;;;;12.00;8.20;;;20.30;69.50;;;;;;5017744;28;20191;-88
2021/09/07 00:22:42;;;;;;;9.07;8.32;;;20.30;69.40;;;;;;5022023;28;20204;-88
2021/09/07 00:25:08;;;;;;;9.77;8.88;;;20.30;70.20;;;;;;5026238;28;20211;-88
2021/09/07 00:27:34;;;;;;;9.00;8.20;;;20.30;69.70;;;;;;5026197;28;20253;-89
2021/09/07 00:30:00;;;;;;;10.75;9.05;;;20.30;69.70;;;;;;5026866;28;20175;-88
2021/09/07 00:32:26;;;;;;;8.55;7.95;;;20.30;69.30;;;;;;5025834;28;20193;-89
2021/09/07 00:34:52;;;;;;;8.57;7.88;;;20.30;69.10;;;;;;5026727;28;20826;-88
2021/09/07 00:37:18;;;;;;;8.18;7.57;;;20.30;69.40;;;;;;5025585;28;20228;-89
2021/09/07 00:39:44;;;;;;;8.48;7.68;;;20.30;69.80;;;;;;5024975;28;20209;-88
2021/09/07 00:42:09;;;;;;;8.35;7.63;;;20.20;69.30;;;;;;5040566;28;20194;-89
2021/09/07 00:44:36;;;;;;;8.88;8.10;;;20.20;69.90;;;;;;5024695;28;20217;-89
2021/09/07 00:47:07;;;;;;;8.50;7.80;;;20.20;69.20;;;;;;5023344;28;20201;-88
2021/09/07 00:49:33;;;;;;;9.13;8.43;;;20.20;69.10;;;;;;5041305;28;20212;-89
2021/09/07 00:52:00;;;;;;;9.27;8.50;;;20.10;70.00;;;;;;5026928;28;20654;-88
2021/09/07 00:54:29;;;;;;;9.02;8.32;;;20.10;69.90;;;;;;5025024;28;20222;-88
2021/09/07 00:56:55;;;;;;;8.98;8.20;;;20.10;69.40;;;;;;5040728;28;20213;-88
2021/09/07 00:59:23;;;;;;;9.63;8.68;;;20.10;69.20;;;;;;5026807;28;20863;-89
2021/09/07 01:01:49;;;;;;;9.00;8.18;;;20.10;69.30;;;;;;5024754;28;20253;-89
2021/09/07 01:04:15;;;;;;;9.07;8.27;;;20.00;70.00;;;;;;5026582;28;20269;-89
2021/09/07 01:06:41;;;;;;;9.70;8.82;;;19.90;69.10;;;;;;5026271;28;20194;-88
2021/09/07 01:09:08;;;;;;;10.63;9.32;;;19.80;70.00;;;;;;5026753;28;20217;-89
2021/09/07 01:11:34;;;;;;;9.07;8.38;;;19.80;70.30;;;;;;5025800;28;20198;-89
2021/09/07 01:14:01;;;;;;;10.13;9.27;;;19.80;70.30;;;;;;5024618;28;20189;-88
2021/09/07 01:16:27;;;;;;;9.27;8.45;;;19.80;69.60;;;;;;5026122;28;20841;-89
2021/09/07 01:18:53;;;;;;;9.10;8.40;;;19.90;69.60;;;;;;5020327;28;20190;-88
2021/09/07 01:21:19;;;;;;;8.88;7.97;;;19.90;70.00;;;;;;5014337;28;20277;-88
2021/09/07 01:23:47;;;;;;;9.48;8.77;;;19.80;69.10;;;;;;5025471;28;20189;-89
2021/09/07 01:26:16;;;;;;;9.82;9.00;;;19.80;69.30;;;;;;5015065;28;20219;-89
2021/09/07 01:28:43;;;;;;;8.93;8.10;;;19.70;69.40;;;;;;5016409;28;20186;-89
2021/09/07 01:31:10;;;;;;;9.73;8.98;;;19.70;69.70;;;;;;5023860;28;20621;-89
2021/09/07 01:33:39;;;;;;;9.10;8.23;;;19.80;69.70;;;;;;5023762;28;20198;-89
2021/09/07 01:36:06;;;;;;;9.18;8.38;;;19.80;68.80;;;;;;5022021;28;20206;-89
2021/09/07 01:38:32;;;;;;;8.93;8.20;;;19.80;68.60;;;;;;5012277;28;20217;-89
2021/09/07 01:40:59;;;;;;;9.40;8.68;;;19.80;68.60;;;;;;5026377;28;20190;-89
2021/09/07 01:43:25;;;;;;;10.40;9.60;;;19.80;68.80;;;;;;5025822;28;20193;-89
2021/09/07 01:45:53;;;;;;;10.32;9.32;;;19.80;68.50;;;;;;5024874;28;20726;-89
2021/09/07 01:48:19;;;;;;;10.10;9.05;;;19.60;68.50;;;;;;5041043;28;20189;-89
2021/09/07 01:50:47;;;;;;;9.55;8.75;;;19.40;69.00;;;;;;5031778;28;20198;-89
2021/09/07 01:53:12;;;;;;;9.63;8.82;;;19.30;70.60;;;;;;5016387;28;20205;-89
2021/09/07 01:55:38;;;;;;;9.55;8.68;;;19.40;69.90;;;;;;5025892;28;20213;-89
2021/09/07 01:58:05;;;;;;;9.50;8.57;;;19.40;70.20;;;;;;5026455;28;20205;-89
2021/09/07 02:00:31;;;;;;;9.45;8.65;;;19.30;69.20;;;;;;5039054;28;20189;-88
2021/09/07 02:02:57;;;;;;;9.10;8.20;;;19.30;70.60;;;;;;5025516;28;20212;-89
2021/09/07 02:05:23;;;;;;;9.02;8.32;;;19.30;70.30;;;;;;5027754;28;20236;-89
2021/09/07 02:07:49;;;;;;;9.75;8.85;;;19.30;69.90;;;;;;5028799;28;20195;-89
2021/09/07 02:10:15;;;;;;;9.30;8.27;;;19.30;69.70;;;;;;5038083;28;20197;-89
2021/09/07 02:12:41;;;;;;;9.85;8.85;;;19.30;70.10;;;;;;5022887;28;20249;-89
2021/09/07 02:15:07;;;;;;;9.63;8.73;;;19.30;70.00;;;;;;5025005;28;20229;-89
2021/09/07 02:17:33;;;;;;;9.80;8.55;;;19.30;69.70;;;;;;5024869;28;20718;-89
2021/09/07 02:20:00;;;;;;;9.27;8.57;;;19.30;68.90;;;;;;5026251;28;20181;-89
2021/09/07 02:22:26;;;;;;;8.70;7.90;;;19.10;69.80;;;;;;5024202;28;20662;-89
2021/09/07 02:24:53;;;;;;;9.50;8.80;;;19.20;69.90;;;;;;5023606;28;20214;-89
2021/09/07 02:27:19;;;;;;;9.70;8.80;;;19.30;69.70;;;;;;5022472;28;20262;-89
2021/09/07 02:29:46;;;;;;;9.48;8.68;;;19.20;69.80;;;;;;5024407;28;20629;-89
2021/09/07 02:32:12;;;;;;;9.20;8.40;;;19.20;69.90;;;;;;5023781;28;20193;-88
2021/09/07 02:34:38;;;;;;;9.77;8.90;;;19.20;69.80;;;;;;5020236;28;20257;-89
2021/09/07 02:37:04;;;;;;;9.80;9.00;;;19.20;69.60;;;;;;5023712;28;20213;-89
2021/09/07 02:39:30;;;;;;;8.98;8.15;;;19.20;69.90;;;;;;5038695;28;20190;-89
2021/09/07 02:41:56;;;;;;;9.18;8.27;;;19.20;69.40;;;;;;5038390;28;20205;-89
2021/09/07 02:44:22;;;;;;;9.48;8.68;;;19.20;69.90;;;;;;5024109;28;20201;-89
2021/09/07 02:46:49;;;;;;;9.82;9.02;;;19.00;70.50;;;;;;5023629;28;20224;-88
2021/09/07 02:49:15;;;;;;;9.90;9.00;;;18.70;71.80;;;;;;5022869;28;20220;-89
2021/09/07 02:51:43;;;;;;;9.73;8.77;;;18.70;72.70;;;;;;5016527;28;20203;-89
2021/09/07 02:54:09;;;;;;;8.57;7.93;;;18.70;73.20;;;;;;5023428;28;20197;-89
2021/09/07 02:56:35;;;;;;;10.30;9.30;;;18.70;71.70;;;;;;5024730;28;20209;-89
2021/09/07 02:59:01;;;;;;;10.48;9.48;;;18.80;71.70;;;;;;5024855;28;20201;-88
2021/09/07 03:01:27;;;;;;;10.25;9.10;;;18.80;71.20;;;;;;5024865;28;20185;-89
2021/09/07 03:03:54;;;;;;;10.10;9.20;;;18.90;71.00;;;;;;5039866;28;20193;-89
2021/09/07 03:06:20;;;;;;;9.15;8.40;;;18.90;70.70;;;;;;5023213;28;20205;-89
2021/09/07 03:08:46;;;;;;;9.45;8.55;;;18.80;70.80;;;;;;5025244;28;20236;-89
2021/09/07 03:11:12;;;;;;;9.80;9.02;;;18.90;71.20;;;;;;5016391;28;20198;-89
2021/09/07 03:13:39;;;;;;;9.57;8.77;;;18.80;70.60;;;;;;5013485;28;20660;-89
2021/09/07 03:16:05;;;;;;;9.13;8.43;;;18.70;70.90;;;;;;5024465;28;20205;-89
2021/09/07 03:18:32;;;;;;;9.63;8.77;;;18.80;71.10;;;;;;5024965;28;20282;-89
2021/09/07 03:20:58;;;;;;;9.35;8.50;;;18.80;71.20;;;;;;5023218;28;20189;-89
2021/09/07 03:23:23;;;;;;;9.35;8.65;;;18.80;71.10;;;;;;5013973;28;20204;-89
2021/09/07 03:25:49;;;;;;;8.90;8.18;;;18.70;71.40;;;;;;5018717;28;20583;-89
2021/09/07 03:28:15;;;;;;;10.32;9.43;;;18.60;71.40;;;;;;5018392;28;20254;-89
2021/09/07 03:30:41;;;;;;;9.40;8.50;;;18.50;71.70;;;;;;5039313;28;20205;-89
2021/09/07 03:33:07;;;;;;;9.50;8.63;;;18.50;71.80;;;;;;5023527;28;20308;-89
2021/09/07 03:35:32;;;;;;;9.77;8.88;;;18.50;71.30;;;;;;5026328;28;20209;-89
2021/09/07 03:37:58;;;;;;;9.88;8.98;;;18.50;71.60;;;;;;5022134;28;20221;-89
2021/09/07 03:40:24;;;;;;;9.13;8.30;;;18.50;71.70;;;;;;5035725;28;20189;-89
2021/09/07 03:42:51;;;;;;;9.65;8.75;;;18.50;72.00;;;;;;5028709;28;20563;-89
2021/09/07 03:45:18;;;;;;;9.98;9.07;;;18.50;71.60;;;;;;5040984;28;20215;-89
2021/09/07 03:47:45;;;;;;;8.75;8.00;;;18.40;71.20;;;;;;5027702;28;20211;-89
2021/09/07 03:50:12;;;;;;;9.38;8.57;;;18.40;71.60;;;;;;5022776;28;20246;-89
2021/09/07 03:52:39;;;;;;;18.63;9.95;;;18.40;71.50;;;;;;5018827;28;20880;-89
2021/09/07 03:55:05;;;;;;;11.57;8.57;;;18.40;70.90;;;;;;5026308;28;20251;-89
2021/09/07 03:57:31;;;;;;;9.02;8.32;;;18.40;71.50;;;;;;5026387;28;20220;-89
2021/09/07 03:59:57;;;;;;;9.27;8.40;;;18.40;71.70;;;;;;5025551;28;20197;-88
2021/09/07 04:02:27;;;;;;;9.70;8.73;;;18.40;70.70;;;;;;5025577;28;20221;-88
2021/09/07 04:04:53;;;;;;;9.43;8.63;;;18.40;71.60;;;;;;5026266;28;20207;-89
2021/09/07 04:07:19;;;;;;;9.68;8.82;;;18.40;71.90;;;;;;5039775;28;20216;-89
2021/09/07 04:09:45;;;;;;;10.02;9.10;;;18.40;71.90;;;;;;5039616;28;20194;-90
2021/09/07 04:12:11;;;;;;;10.23;9.27;;;18.30;71.90;;;;;;5024036;28;20185;-89
2021/09/07 04:14:37;;;;;;;10.02;9.23;;;18.20;72.30;;;;;;5014060;28;20293;-89
2021/09/07 04:17:04;;;;;;;12.02;9.63;;;18.20;72.30;;;;;;5018659;28;20264;-90
2021/09/07 04:19:31;;;;;;;10.10;9.07;;;18.20;72.20;;;;;;5038859;28;20197;-90
2021/09/07 04:21:57;;;;;;;9.73;8.85;;;18.30;72.40;;;;;;5024076;28;20176;-91
2021/09/07 04:24:23;;;;;;;9.45;8.63;;;18.30;72.20;;;;;;5025716;28;20264;-89
2021/09/07 04:26:49;;;;;;;10.35;9.45;;;18.30;71.90;;;;;;5025296;28;20216;-90
2021/09/07 04:29:15;;;;;;;9.70;8.90;;;18.20;71.70;;;;;;5037210;28;20716;-89
2021/09/07 04:31:42;;;;;;;77.90;74.05;;;18.10;72.30;;;;;;5023140;28;20228;-89
2021/09/07 04:34:08;;;;;;;10.57;9.70;;;18.00;71.90;;;;;;5023446;28;20260;-89
2021/09/07 04:36:34;;;;;;;12.65;9.82;;;18.10;72.70;;;;;;5014552;28;20232;-89
2021/09/07 04:39:00;;;;;;;10.30;9.45;;;18.10;72.30;;;;;;5016893;28;20213;-90
2021/09/07 04:41:26;;;;;;;9.63;8.82;;;18.10;72.20;;;;;;5021536;28;20244;-89
2021/09/07 04:43:52;;;;;;;10.18;9.35;;;18.20;72.00;;;;;;5022126;28;20191;-89
2021/09/07 04:46:18;;;;;;;11.75;9.43;;;18.20;72.30;;;;;;5004725;28;20223;-88
2021/09/07 04:48:43;;;;;;;9.75;8.95;;;18.20;72.10;;;;;;5019773;28;20217;-90
2021/09/07 04:51:10;;;;;;;10.35;9.45;;;18.20;72.00;;;;;;5021476;28;20324;-88
2021/09/07 04:53:36;;;;;;;10.27;9.30;;;18.20;71.30;;;;;;5023902;28;20221;-88
2021/09/07 04:56:02;;;;;;;10.25;9.40;;;18.10;72.30;;;;;;5022360;28;20261;-88
2021/09/07 04:58:28;;;;;;;11.80;10.57;;;18.00;72.70;;;;;;5021726;28;20216;-88
2021/09/07 05:00:54;;;;;;;10.60;9.52;;;17.80;73.30;;;;;;5018988;28;20188;-89
2021/09/07 05:03:20;;;;;;;11.75;10.75;;;17.80;74.90;;;;;;5022052;28;20282;-89
2021/09/07 05:05:46;;;;;;;10.73;9.82;;;17.90;74.40;;;;;;5022418;28;20302;-89
2021/09/07 05:08:11;;;;;;;10.87;9.67;;;17.90;73.00;;;;;;5019141;28;20758;-89
2021/09/07 05:10:37;;;;;;;10.20;9.07;;;18.00;73.40;;;;;;5020896;28;20271;-89
2021/09/07 05:13:03;;;;;;;14.20;9.45;;;18.00;73.20;;;;;;5021162;28;20189;-88
2021/09/07 05:15:29;;;;;;;10.55;9.57;;;18.10;72.80;;;;;;5036548;28;20239;-89
2021/09/07 05:17:55;;;;;;;9.80;8.70;;;18.10;72.60;;;;;;5021317;28;20220;-90
2021/09/07 05:20:21;;;;;;;10.75;8.50;;;18.10;72.60;;;;;;5014788;28;20204;-87
2021/09/07 05:22:47;;;;;;;11.02;9.98;;;18.20;72.90;;;;;;5013168;28;20283;-88
2021/09/07 05:25:12;;;;;;;9.65;8.65;;;18.10;73.10;;;;;;5010723;28;20602;-88
2021/09/07 05:27:38;;;;;;;9.40;8.57;;;18.10;73.60;;;;;;5019170;28;20199;-88
2021/09/07 05:30:06;;;;;;;10.93;9.45;;;18.10;73.80;;;;;;5017490;28;20200;-87
2021/09/07 05:32:33;;;;;;;11.35;9.73;;;18.10;73.10;;;;;;5017788;28;20291;-88
2021/09/07 05:34:59;;;;;;;11.05;9.23;;;18.10;73.60;;;;;;5018826;28;20262;-88
2021/09/07 05:37:25;;;;;;;10.80;9.82;;;18.20;73.70;;;;;;5036528;28;20209;-89
2021/09/07 05:39:52;;;;;;;10.82;9.93;;;18.20;73.70;;;;;;5034969;28;20199;-88
2021/09/07 05:42:18;;;;;;;10.90;9.90;;;18.10;74.00;;;;;;5000244;28;20677;-88
2021/09/07 05:44:44;;;;;;;10.43;9.52;;;18.10;74.30;;;;;;5038072;22;20228;-90
2021/09/07 05:47:09;;;;;;;10.32;9.43;;;18.20;74.00;;;;;;5063889;28;20237;-90
2021/09/07 05:49:35;;;;;;;11.57;10.52;;;18.20;74.00;;;;;;5062151;28;20213;-90
2021/09/07 05:52:01;;;;;;;10.95;9.85;;;18.30;73.50;;;;;;5061032;28;20180;-90
2021/09/07 05:54:27;;;;;;;13.50;10.07;;;18.30;73.80;;;;;;5062429;28;20219;-90
2021/09/07 05:56:57;;;;;;;10.43;9.35;;;18.30;73.60;;;;;;5034368;28;20187;-90
2021/09/07 05:59:24;;;;;;;11.48;9.98;;;18.40;73.90;;;;;;5062415;28;20180;-89
2021/09/07 06:01:49;;;;;;;9.93;9.05;;;18.40;74.00;;;;;;5048008;28;20180;-90
2021/09/07 06:04:15;;;;;;;11.48;9.93;;;18.50;73.90;;;;;;5027499;28;20672;-89
2021/09/07 06:06:41;;;;;;;11.00;10.00;;;18.60;74.00;;;;;;5044267;28;20185;-90
2021/09/07 06:09:07;;;;;;;9.98;9.18;;;18.50;74.60;;;;;;5042908;28;20191;-90
2021/09/07 06:11:32;;;;;;;11.68;10.60;;;18.50;74.80;;;;;;5042243;28;20183;-90
2021/09/07 06:13:59;;;;;;;11.98;10.88;;;18.60;75.00;;;;;;5044405;28;20184;-90
2021/09/07 06:16:26;;;;;;;11.85;10.75;;;18.50;75.30;;;;;;5028681;28;20184;-90
2021/09/07 06:18:52;;;;;;;10.98;10.07;;;18.40;76.00;;;;;;5038497;28;20224;-89
2021/09/07 06:21:18;;;;;;;11.20;10.27;;;18.20;76.50;;;;;;5049710;28;20267;-90
2021/09/07 06:23:43;;;;;;;11.68;10.68;;;18.10;77.70;;;;;;5042164;28;20182;-89
2021/09/07 06:26:09;;;;;;;11.48;10.57;;;18.00;78.10;;;;;;5046826;28;20211;-89
2021/09/07 06:28:35;;;;;;;12.02;11.02;;;18.00;78.10;;;;;;5054630;28;20184;-89
2021/09/07 06:31:00;;;;;;;11.68;10.55;;;18.10;78.10;;;;;;5049954;28;20277;-90
2021/09/07 06:33:26;;;;;;;14.20;10.88;;;18.30;77.60;;;;;;5028997;28;20188;-89
2021/09/07 06:35:52;;;;;;;13.65;10.65;;;18.30;77.80;;;;;;5042247;28;20209;-90
2021/09/07 06:38:18;;;;;;;13.27;12.07;;;18.30;78.80;;;;;;5023627;28;20247;-91
2021/09/07 06:40:44;;;;;;;12.88;11.68;;;18.40;77.80;;;;;;5043131;28;20184;-90
2021/09/07 06:43:09;;;;;;;12.45;11.25;;;18.50;78.00;;;;;;5042396;28;20658;-90
2021/09/07 06:45:35;;;;;;;11.95;10.30;;;18.60;78.60;;;;;;5040567;28;20220;-89
2021/09/07 06:48:01;;;;;;;13.20;12.00;;;18.60;77.70;;;;;;5040587;28;20206;-89
2021/09/07 06:50:26;;;;;;;17.05;12.35;;;18.70;77.40;;;;;;5043007;28;20189;-90
2021/09/07 06:52:52;;;;;;;14.52;12.68;;;18.90;77.10;;;;;;5042558;28;20197;-90
2021/09/07 06:55:18;;;;;;;14.38;10.90;;;19.00;77.60;;;;;;5057527;28;20216;-90
2021/09/07 06:57:43;;;;;;;20.20;13.30;;;19.00;76.70;;;;;;5039874;28;20231;-90
2021/09/07 07:00:10;;;;;;;14.70;13.27;;;19.00;77.10;;;;;;5038883;28;20668;-89
2021/09/07 07:02:39;;;;;;;15.88;13.65;;;19.00;77.00;;;;;;5034917;28;20583;-89
2021/09/07 07:05:06;;;;;;;16.25;14.63;;;19.10;76.90;;;;;;5039676;28;20212;-89
2021/09/07 07:07:32;;;;;;;17.13;14.10;;;19.00;77.30;;;;;;5040273;28;20212;-90
2021/09/07 07:09:58;;;;;;;15.65;14.25;;;19.00;78.10;;;;;;5040714;28;20195;-90
2021/09/07 07:12:23;;;;;;;16.30;14.68;;;19.00;77.70;;;;;;5038310;28;20188;-90
2021/09/07 07:14:49;;;;;;;15.88;14.27;;;18.90;76.70;;;;;;5041079;28;20243;-90
2021/09/07 07:17:15;;;;;;;18.40;15.25;;;18.90;77.40;;;;;;5042327;28;20206;-90
2021/09/07 07:19:40;;;;;;;15.30;13.80;;;18.90;77.60;;;;;;5044203;28;20198;-90
2021/09/07 07:22:06;;;;;;;15.13;13.82;;;19.00;77.20;;;;;;5044967;28;20278;-89
2021/09/07 07:24:32;;;;;;;16.95;13.98;;;19.10;77.00;;;;;;5043503;28;20219;-90
2021/09/07 07:26:58;;;;;;;16.92;15.27;;;19.20;75.90;;;;;;5043994;28;20218;-90
2021/09/07 07:29:23;;;;;;;16.75;14.10;;;19.20;75.10;;;;;;5052854;28;20176;-90
2021/09/07 07:31:49;;;;;;;16.05;14.50;;;19.30;75.00;;;;;;5050564;28;20193;-90
2021/09/07 07:34:17;;;;;;;19.05;13.75;;;19.20;75.50;;;;;;5041902;28;20317;-89
2021/09/07 07:36:43;;;;;;;18.75;14.23;;;19.30;75.90;;;;;;5043865;28;20718;-90
2021/09/07 07:39:08;;;;;;;17.83;15.32;;;19.40;76.70;;;;;;5043346;28;20327;-90
2021/09/07 07:41:34;;;;;;;18.75;13.77;;;19.40;76.10;;;;;;5041514;28;20204;-90
2021/09/07 07:44:00;;;;;;;16.30;13.73;;;19.50;75.50;;;;;;5029659;28;20190;-89
2021/09/07 07:46:26;;;;;;;19.90;13.30;;;19.40;75.80;;;;;;5046003;28;20447;-90
2021/09/07 07:48:52;;;;;;;14.43;12.88;;;19.40;75.00;;;;;;5042704;28;20223;-89
2021/09/07 07:51:19;;;;;;;13.63;12.32;;;19.40;73.90;;;;;;5044172;28;20202;-89
2021/09/07 07:53:45;;;;;;;12.95;11.68;;;19.50;74.30;;;;;;5025342;28;20204;-90
2021/09/07 07:56:11;;;;;;;14.07;11.93;;;19.60;72.90;;;;;;5043448;28;20555;-89
2021/09/07 07:58:36;;;;;;;15.80;12.57;;;19.60;72.10;;;;;;5042623;28;20215;-90
2021/09/07 08:01:03;;;;;;;15.15;11.63;;;19.60;72.30;;;;;;5044317;28;20252;-90
2021/09/07 08:03:29;;;;;;;16.00;12.48;;;19.90;71.00;;;;;;5042524;28;20203;-90
2021/09/07 08:05:54;;;;;;;14.10;12.70;;;20.10;70.50;;;;;;5029178;28;20208;-90
2021/09/07 08:08:20;;;;;;;14.18;12.18;;;20.30;69.70;;;;;;5052696;28;20195;-90
2021/09/07 08:10:46;;;;;;;15.93;12.18;;;20.30;68.50;;;;;;5044136;28;20201;-90
2021/09/07 08:13:11;;;;;;;13.63;12.07;;;20.50;68.10;;;;;;5030505;28;20216;-90
2021/09/07 08:15:37;;;;;;;14.25;11.20;;;20.50;67.70;;;;;;5043274;28;20216;-90
2021/09/07 08:18:03;;;;;;;13.55;11.30;;;20.50;68.20;;;;;;5037205;28;20217;-90
2021/09/07 08:20:33;;;;;;;13.15;11.65;;;20.60;68.10;;;;;;5025848;28;20185;-90
2021/09/07 08:23:00;;;;;;;15.35;11.88;;;20.70;67.40;;;;;;5037437;28;20170;-90
2021/09/07 08:25:26;;;;;;;16.23;11.70;;;20.80;66.40;;;;;;5034992;28;20269;-90
2021/09/07 08:27:52;;;;;;;12.70;11.57;;;20.90;66.50;;;;;;5037207;28;20281;-90
2021/09/07 08:30:18;;;;;;;12.25;11.23;;;20.80;66.50;;;;;;5036758;28;20225;-90
2021/09/07 08:32:43;;;;;;;13.20;12.05;;;20.90;66.60;;;;;;5039070;28;20683;-90
2021/09/07 08:35:11;;;;;;;14.85;10.85;;;20.80;66.40;;;;;;5034896;28;20209;-90
2021/09/07 08:37:38;;;;;;;13.52;12.05;;;21.00;66.60;;;;;;5045220;28;20204;-90
2021/09/07 08:40:06;;;;;;;12.48;11.15;;;21.10;66.60;;;;;;5037766;28;20192;-90
2021/09/07 08:42:34;;;;;;;12.65;11.35;;;21.20;66.50;;;;;;5037445;28;20185;-90
2021/09/07 08:45:02;;;;;;;14.93;11.18;;;21.30;65.60;;;;;;5037802;28;20207;-90
2021/09/07 08:47:29;;;;;;;16.02;13.00;;;21.40;65.80;;;;;;5025318;28;20279;-91
2021/09/07 08:49:56;;;;;;;13.73;12.35;;;21.30;65.90;;;;;;5034196;28;20189;-91
2021/09/07 08:52:22;;;;;;;13.50;12.13;;;21.40;65.80;;;;;;5036585;28;20186;-91
2021/09/07 08:54:48;;;;;;;13.68;12.20;;;21.50;65.70;;;;;;5035168;28;20234;-91
2021/09/07 08:57:15;;;;;;;13.70;12.40;;;21.80;65.40;;;;;;5037742;28;20690;-92
2021/09/07 08:59:40;;;;;;;15.60;13.13;;;21.80;65.40;;;;;;5037100;28;20196;-91
2021/09/07 09:02:17;;;;;;;14.23;12.75;;;21.80;65.30;;;;;;5036737;28;20736;-91
2021/09/07 09:04:48;;;;;;;13.18;11.85;;;21.90;65.10;;;;;;5040114;28;20583;-91
2021/09/07 09:07:30;;;;;;;14.93;13.25;;;22.10;64.50;;;;;;5045243;28;20192;-91
2021/09/07 09:09:58;;;;;;;12.82;11.68;;;22.10;63.10;;;;;;5043650;28;20197;-91
2021/09/07 09:12:36;;;;;;;13.52;11.90;;;22.20;62.60;;;;;;5023450;28;20217;-91
2021/09/07 09:15:09;;;;;;;12.98;11.88;;;22.30;60.20;;;;;;5038751;28;20234;-91
2021/09/07 09:17:35;;;;;;;13.73;12.45;;;22.40;59.70;;;;;;5036451;28;20267;-90
2021/09/07 09:20:05;;;;;;;13.15;11.52;;;22.60;59.90;;;;;;5037089;28;20239;-91
2021/09/07 09:22:41;;;;;;;15.93;11.70;;;22.80;60.20;;;;;;5036415;28;20257;-91
2021/09/07 09:25:29;;;;;;;14.27;12.85;;;23.00;59.80;;;;;;5036607;28;20291;-91
2021/09/07 09:27:54;;;;;;;14.35;12.98;;;23.00;59.90;;;;;;5054238;28;20208;-91
2021/09/07 09:30:27;;;;;;;14.20;12.68;;;23.20;60.70;;;;;;5047293;28;20170;-91
2021/09/07 09:32:53;;;;;;;14.63;13.07;;;23.30;59.20;;;;;;5042601;28;20185;-91
2021/09/07 09:35:20;;;;;;;14.05;12.55;;;23.40;59.20;;;;;;5038678;28;20727;-90
2021/09/07 09:38:05;;;;;;;14.50;12.35;;;23.50;59.00;;;;;;5044227;28;20216;-91
2021/09/07 09:40:33;;;;;;;14.70;13.20;;;23.60;58.80;;;;;;5023749;28;20571;-92
2021/09/07 09:43:17;;;;;;;18.35;13.48;;;23.80;58.60;;;;;;5018433;28;20179;-91
2021/09/07 09:45:43;;;;;;;13.40;12.20;;;23.80;57.80;;;;;;5036183;28;20224;-91
2021/09/07 09:48:24;;;;;;;16.67;12.27;;;24.00;58.60;;;;;;5034856;28;20193;-91
2021/09/07 09:50:50;;;;;;;17.08;13.18;;;24.10;57.90;;;;;;5026696;28;20197;-91
2021/09/07 09:53:20;;;;;;;16.42;11.25;;;24.40;57.20;;;;;;5040420;28;20730;-91
2021/09/07 09:55:48;;;;;;;15.70;11.90;;;24.40;57.90;;;;;;5021355;28;20210;-91
2021/09/07 09:58:17;;;;;;;13.13;11.68;;;24.30;57.40;;;;;;5032968;28;20584;-91
2021/09/07 10:00:50;;;;;;;13.68;11.25;;;24.40;57.90;;;;;;5041289;28;20190;-90
2021/09/07 10:03:17;;;;;;;13.77;11.60;;;24.70;56.40;;;;;;5040759;28;20181;-91
2021/09/07 10:05:44;;;;;;;13.18;11.88;;;24.90;56.00;;;;;;5038786;28;20200;-91
2021/09/07 10:08:11;;;;;;;12.98;11.68;;;25.10;55.70;;;;;;5040155;28;20209;-91
2021/09/07 10:10:52;;;;;;;13.85;11.95;;;25.20;55.20;;;;;;5040595;28;20189;-91
2021/09/07 10:13:19;;;;;;;14.32;12.18;;;25.30;54.90;;;;;;5040483;28;20189;-90
2021/09/07 10:15:54;;;;;;;12.13;11.10;;;25.30;54.20;;;;;;5026465;28;20308;-90
2021/09/07 10:21:13;;;;;;;13.27;12.07;;;25.40;54.70;;;;;;5028980;28;20173;-90
2021/09/07 10:26:17;;;;;;;12.30;11.05;;;25.60;54.10;;;;;;5053950;28;20623;-91
2021/09/07 10:28:45;;;;;;;14.07;11.40;;;25.60;53.90;;;;;;5052327;28;20236;-91
2021/09/07 10:31:11;;;;;;;15.77;11.90;;;25.80;54.20;;;;;;5035651;28;20173;-91
2021/09/07 10:33:38;;;;;;;12.68;11.38;;;25.90;54.30;;;;;;5036261;28;20185;-91
2021/09/07 10:36:03;;;;;;;11.90;10.80;;;26.00;53.70;;;;;;5029683;28;20208;-91
2021/09/07 10:38:44;;;;;;;12.75;11.60;;;26.20;54.10;;;;;;5043197;28;20544;-91
2021/09/07 10:41:30;;;;;;;12.23;11.13;;;26.40;53.00;;;;;;5037617;28;20203;-91
2021/09/07 10:44:18;;;;;;;12.38;11.18;;;26.50;52.40;;;;;;5035868;28;20181;-91
2021/09/07 10:46:47;;;;;;;12.30;11.05;;;26.70;52.90;;;;;;5036015;28;20724;-90
2021/09/07 10:49:13;;;;;;;12.95;11.70;;;26.60;52.40;;;;;;5031052;28;20188;-91
2021/09/07 10:52:04;;;;;;;12.55;11.50;;;26.80;52.30;;;;;;5030478;28;20215;-90
2021/09/07 10:54:31;;;;;;;11.52;10.63;;;27.20;51.50;;;;;;5031007;28;20204;-91
2021/09/07 10:56:58;;;;;;;12.10;11.10;;;27.40;51.30;;;;;;5052302;28;20185;-91
2021/09/07 10:59:45;;;;;;;13.60;12.30;;;27.50;51.20;;;;;;5038572;28;20291;-91
2021/09/07 11:02:35;;;;;;;13.10;12.00;;;27.50;50.90;;;;;;5037170;28;20211;-90
2021/09/07 11:05:05;;;;;;;12.10;11.10;;;27.50;50.80;;;;;;5036472;28;20215;-91
2021/09/07 11:07:40;;;;;;;12.52;11.43;;;27.60;50.90;;;;;;5033631;28;20203;-91
2021/09/07 11:10:26;;;;;;;12.82;11.57;;;27.60;50.80;;;;;;5017808;28;20289;-91
2021/09/07 11:13:01;;;;;;;13.13;11.95;;;27.70;50.20;;;;;;5035127;28;20197;-91
2021/09/07 11:15:31;;;;;;;11.75;10.80;;;27.80;50.60;;;;;;5034038;28;20213;-91
2021/09/07 11:18:09;;;;;;;12.35;11.30;;;28.00;50.20;;;;;;5036341;28;20201;-91
2021/09/07 11:20:39;;;;;;;12.50;11.23;;;28.20;49.00;;;;;;5034254;28;20662;-91
2021/09/07 11:23:32;;;;;;;13.10;12.00;;;28.30;49.10;;;;;;5034031;28;20189;-91
2021/09/07 11:26:05;;;;;;;14.13;11.30;;;28.40;48.20;;;;;;5035542;28;20213;-90
2021/09/07 11:28:36;;;;;;;13.00;11.77;;;28.40;46.90;;;;;;5036542;28;20208;-91
2021/09/07 11:31:03;;;;;;;12.35;11.30;;;28.80;45.90;;;;;;5028948;28;20199;-90
2021/09/07 11:33:33;;;;;;;11.82;10.85;;;29.10;45.80;;;;;;5035651;28;20193;-91
2021/09/07 11:36:07;;;;;;;12.30;11.15;;;29.10;45.90;;;;;;5038459;28;20216;-91
2021/09/07 11:38:40;;;;;;;12.45;11.32;;;29.20;44.00;;;;;;5039320;28;20258;-91
2021/09/07 11:41:31;;;;;;;11.43;10.32;;;29.10;44.90;;;;;;5040156;28;20185;-90
2021/09/07 11:43:57;;;;;;;12.60;11.07;;;29.50;42.60;;;;;;5034433;28;20201;-91
2021/09/07 11:46:30;;;;;;;11.68;10.57;;;29.80;41.10;;;;;;5039797;28;20205;-91
2021/09/07 11:49:06;;;;;;;12.48;11.38;;;29.90;39.40;;;;;;5030137;28;20209;-91
2021/09/07 11:51:34;;;;;;;12.68;11.55;;;30.10;42.10;;;;;;5048557;28;20282;-91
2021/09/07 11:54:03;;;;;;;12.15;10.93;;;30.00;43.20;;;;;;5044195;28;20194;-90
2021/09/07 11:56:31;;;;;;;11.60;10.70;;;30.10;42.70;;;;;;5056897;28;20181;-90
2021/09/07 11:59:10;;;;;;;12.23;11.27;;;30.20;42.50;;;;;;5045405;28;20695;-91
2021/09/07 12:01:52;;;;;;;11.23;10.30;;;30.00;41.30;;;;;;5037769;28;20204;-90
2021/09/07 12:04:20;;;;;;;11.20;10.07;;;29.80;38.70;;;;;;5051124;28;20223;-91
2021/09/07 12:06:53;;;;;;;11.10;10.18;;;29.80;37.20;;;;;;5059044;28;20184;-89
2021/09/07 12:09:22;;;;;;;10.30;9.45;;;29.90;38.90;;;;;;5040251;28;20660;-90
2021/09/07 12:12:08;;;;;;;10.55;9.55;;;30.10;37.40;;;;;;5037671;28;20240;-90
2021/09/07 12:14:38;;;;;;;10.85;9.95;;;30.30;35.40;;;;;;5036926;28;20562;-91
2021/09/07 12:17:06;;;;;;;11.20;10.20;;;30.30;35.70;;;;;;5037582;28;20177;-90
2021/09/07 12:19:33;;;;;;;11.60;10.60;;;30.60;34.40;;;;;;5041608;28;20292;-90
2021/09/07 12:22:08;;;;;;;10.70;9.82;;;30.80;35.90;;;;;;5041847;28;20181;-90
2021/09/07 12:24:34;;;;;;;11.80;10.82;;;30.80;36.00;;;;;;5040079;28;20204;-91
2021/09/07 12:27:21;;;;;;;12.13;10.82;;;30.60;38.40;;;;;;5032074;28;20748;-90
2021/09/07 12:30:27;;;;;;;11.23;10.10;;;30.20;38.50;;;;;;5042167;28;20237;-90
2021/09/07 12:33:06;;;;;;;11.30;10.02;;;30.00;36.50;;;;;;5041722;28;20173;-90
2021/09/07 12:35:41;;;;;;;10.93;10.05;;;30.40;37.20;;;;;;5048702;28;20715;-91
2021/09/07 12:38:08;;;;;;;11.00;10.20;;;30.50;35.40;;;;;;5046609;28;20208;-89
2021/09/07 12:40:40;;;;;;;11.38;10.23;;;30.60;35.50;;;;;;5048369;28;20169;-89
2021/09/07 12:43:07;;;;;;;9.95;9.10;;;30.60;36.00;;;;;;5038213;28;20189;-89
2021/09/07 12:45:33;;;;;;;11.13;10.10;;;30.90;37.10;;;;;;5044664;28;20217;-90